createdAt,value
2017-07-04T00:00:40.031Z,79.76
2017-07-04T00:01:20.558Z,80.43
2017-07-04T00:02:01.121Z,80.24
2017-07-04T00:02:41.658Z,80.47
2017-07-04T00:03:22.244Z,80.63
2017-07-04T00:04:02.780Z,81.05
2017-07-04T00:04:43.323Z,80.82
2017-07-04T00:05:23.860Z,81.01
2017-07-04T00:06:04.395Z,81.59
2017-07-04T00:06:44.940Z,81.3
2017-07-04T00:07:25.481Z,81.59
2017-07-04T00:08:06.029Z,81.97
2017-07-04T00:08:46.575Z,81.97
2017-07-04T00:09:27.123Z,81.59
2017-07-04T00:10:07.664Z,81.97
2017-07-04T00:10:48.207Z,82.35
2017-07-04T00:11:28.760Z,82.26
2017-07-04T00:12:09.295Z,82.64
2017-07-04T00:12:49.837Z,82.54
2017-07-04T00:13:30.369Z,82.45
2017-07-04T00:14:10.901Z,82.74
2017-07-04T00:14:51.440Z,82.74
2017-07-04T00:15:31.984Z,82.64
2017-07-04T00:16:12.558Z,82.54
2017-07-04T00:16:53.052Z,82.45
2017-07-04T00:17:33.582Z,82.64
2017-07-04T00:18:14.126Z,83.51
2017-07-04T00:18:54.679Z,83.31
2017-07-04T00:21:14.012Z,83.51
2017-07-04T00:21:54.567Z,83.89
2017-07-04T00:22:35.110Z,83.7
2017-07-04T00:23:15.651Z,83.98
2017-07-04T00:23:56.170Z,83.89
2017-07-04T00:24:36.708Z,84.18
2017-07-04T00:25:17.242Z,84.56
2017-07-04T00:25:57.782Z,84.47
2017-07-04T00:26:38.322Z,84.37
2017-07-04T00:27:18.861Z,85.1
2017-07-04T00:27:59.402Z,84.81
2017-07-04T00:28:39.943Z,85.48
2017-07-04T00:29:20.484Z,84.91
2017-07-04T00:30:01.003Z,85.24
2017-07-04T00:30:41.538Z,85.42
2017-07-04T00:31:22.078Z,85.58
2017-07-04T00:32:02.617Z,85.67
2017-07-04T00:32:43.179Z,85.96
2017-07-04T00:33:23.718Z,86.25
2017-07-04T00:35:22.860Z,86.63
2017-07-04T00:36:03.394Z,87.49
2017-07-04T00:36:43.938Z,87.21
2017-07-04T00:37:24.482Z,87.3
2017-07-04T00:38:05.011Z,86.72
2017-07-04T00:38:45.553Z,87.59
2017-07-04T00:39:26.089Z,87.59
2017-07-04T00:40:06.630Z,87.49
2017-07-04T00:40:47.171Z,87.49
2017-07-04T00:41:27.719Z,87.59
2017-07-04T00:42:08.237Z,88.17
2017-07-04T00:42:48.780Z,88.45
2017-07-04T00:43:29.315Z,88.65
2017-07-04T00:44:09.857Z,88.35
2017-07-04T00:44:50.388Z,88.74
2017-07-04T00:45:30.907Z,89.03
2017-07-04T00:46:11.459Z,89.18
2017-07-04T00:46:51.991Z,89.47
2017-07-04T00:47:32.532Z,89.56
2017-07-04T00:48:13.068Z,89.18
2017-07-04T00:48:53.596Z,89.85
2017-07-04T00:49:34.155Z,89.75
2017-07-04T00:50:14.709Z,90.23
2017-07-04T00:50:55.251Z,90.61
2017-07-04T00:51:35.787Z,90.61
2017-07-04T00:52:16.346Z,90.52
2017-07-04T00:52:56.875Z,90.71
2017-07-04T00:53:37.415Z,90.52
2017-07-04T00:54:17.950Z,91.48
2017-07-04T00:54:58.493Z,91.19
2017-07-04T00:55:39.030Z,91.57
2017-07-04T00:56:19.568Z,91.48
2017-07-04T00:57:00.105Z,92.24
2017-07-04T00:57:40.650Z,91.48
2017-07-04T00:58:21.174Z,91.86
2017-07-04T00:59:01.759Z,91.96
2017-07-04T00:59:42.309Z,92.05
2017-07-04T01:00:22.844Z,92.44
2017-07-04T01:01:03.386Z,92.05
2017-07-04T01:01:43.918Z,92.44
2017-07-04T01:02:24.463Z,92.34
2017-07-04T01:03:05.001Z,92.91
2017-07-04T01:03:45.540Z,92.72
2017-07-04T01:04:26.078Z,93.59
2017-07-04T01:05:06.620Z,93.4
2017-07-04T01:05:47.172Z,93.11
2017-07-04T01:06:27.686Z,93.59
2017-07-04T01:07:08.224Z,93.59
2017-07-04T01:07:48.768Z,93.97
2017-07-04T01:08:29.304Z,93.88
2017-07-04T01:09:09.841Z,93.88
2017-07-04T01:09:50.386Z,94.26
2017-07-04T01:10:30.926Z,94.35
2017-07-04T01:11:11.456Z,94.84
2017-07-04T01:11:51.980Z,94.54
2017-07-04T01:12:32.537Z,94.64
2017-07-04T01:13:13.071Z,95.03
2017-07-04T01:13:53.691Z,94.84
2017-07-04T01:14:34.227Z,94.64
2017-07-04T01:15:14.757Z,95.6
2017-07-04T01:15:55.291Z,95.31
2017-07-04T01:16:35.835Z,95.21
2017-07-04T01:17:16.372Z,95.31
2017-07-04T01:17:56.916Z,95.41
2017-07-04T01:18:37.452Z,95.79
2017-07-04T01:19:17.986Z,95.41
2017-07-04T01:19:58.536Z,96.56
2017-07-04T01:20:39.088Z,96.27
2017-07-04T01:21:19.617Z,96.37
2017-07-04T01:22:00.144Z,97.14
2017-07-04T01:22:40.705Z,96.66
2017-07-04T01:23:21.220Z,97.23
2017-07-04T01:24:01.763Z,97.52
2017-07-04T01:24:42.315Z,97.33
2017-07-04T01:25:22.888Z,96.94
2017-07-04T01:26:03.426Z,98
2017-07-04T01:26:43.966Z,98.1
2017-07-04T01:27:24.514Z,97.81
2017-07-04T01:28:05.063Z,98.67
2017-07-04T01:28:45.605Z,98.86
2017-07-04T01:29:26.141Z,99.24
2017-07-04T01:30:06.699Z,99.44
2017-07-04T01:30:47.224Z,99.39
2017-07-04T01:31:27.756Z,99.39
2017-07-04T01:32:08.312Z,99.99
2017-07-04T01:32:48.834Z,99.99
2017-07-04T01:33:29.380Z,99.99
2017-07-04T01:34:09.919Z,99.99
2017-07-04T01:34:50.460Z,99.99
2017-07-04T01:35:30.995Z,99.99
2017-07-04T01:36:11.539Z,99.99
2017-07-04T01:36:52.066Z,99.99
2017-07-04T01:37:32.605Z,99.99
2017-07-04T01:38:13.147Z,99.99
2017-07-04T01:40:27.377Z,99.99
2017-07-04T01:41:07.921Z,99.99
2017-07-04T01:41:48.446Z,99.99
2017-07-04T01:43:37.358Z,99.99
2017-07-04T01:44:17.896Z,99.99
2017-07-04T01:44:58.440Z,99.99
2017-07-04T01:45:38.982Z,99.99
2017-07-04T01:46:19.520Z,99.99
2017-07-04T01:47:00.042Z,99.99
2017-07-04T01:47:40.592Z,99.99
2017-07-04T01:48:21.138Z,99.99
2017-07-04T01:49:01.662Z,99.99
2017-07-04T01:49:42.206Z,99.99
2017-07-04T01:50:22.743Z,99.99
2017-07-04T01:51:03.282Z,99.99
2017-07-04T01:51:43.813Z,99.99
2017-07-04T01:52:24.360Z,99.99
2017-07-04T01:53:04.878Z,99.99
2017-07-04T01:53:45.417Z,99.99
2017-07-04T01:54:25.980Z,99.99
2017-07-04T01:55:06.539Z,99.99
2017-07-04T01:55:47.054Z,99.99
2017-07-04T01:56:27.641Z,99.99
2017-07-04T01:57:08.180Z,99.99
2017-07-04T01:57:48.715Z,99.99
2017-07-04T01:58:29.252Z,99.99
2017-07-04T01:59:09.780Z,99.99
2017-07-04T01:59:50.320Z,99.99
2017-07-04T02:00:30.849Z,99.99
2017-07-04T02:01:11.400Z,99.99
2017-07-04T02:01:51.941Z,99.99
2017-07-04T02:02:32.480Z,99.99
2017-07-04T02:03:13.067Z,99.99
2017-07-04T02:03:53.557Z,99.99
2017-07-04T02:04:34.093Z,99.99
2017-07-04T02:05:14.633Z,99.99
2017-07-04T02:05:55.173Z,99.99
2017-07-04T02:06:35.722Z,99.99
2017-07-04T02:07:16.287Z,99.99
2017-07-04T02:07:56.823Z,99.99
2017-07-04T02:08:37.356Z,99.99
2017-07-04T02:09:17.907Z,99.99
2017-07-04T02:09:58.433Z,99.99
2017-07-04T02:10:38.974Z,99.99
2017-07-04T02:11:19.520Z,99.99
2017-07-04T02:12:00.064Z,99.99
2017-07-04T02:12:40.601Z,99.99
2017-07-04T02:13:21.145Z,99.99
2017-07-04T02:14:01.684Z,99.99
2017-07-04T02:14:42.225Z,99.99
2017-07-04T02:15:22.748Z,99.99
2017-07-04T02:16:03.282Z,99.99
2017-07-04T02:16:43.820Z,99.99
2017-07-04T02:17:24.374Z,99.99
2017-07-04T02:18:04.922Z,99.99
2017-07-04T02:18:45.464Z,99.99
2017-07-04T02:19:26.023Z,99.99
2017-07-04T02:20:06.568Z,99.99
2017-07-04T02:20:47.114Z,99.99
2017-07-04T02:21:27.652Z,99.99
2017-07-04T02:22:08.189Z,99.99
2017-07-04T02:22:48.721Z,99.99
2017-07-04T02:23:29.271Z,99.99
2017-07-04T02:24:09.811Z,99.99
2017-07-04T02:24:50.332Z,99.99
2017-07-04T02:25:30.887Z,99.99
2017-07-04T02:26:11.431Z,99.99
2017-07-04T02:26:51.966Z,99.99
2017-07-04T02:27:32.508Z,99.99
2017-07-04T02:28:13.050Z,99.99
2017-07-04T02:28:53.566Z,99.99
2017-07-04T02:29:34.103Z,99.99
2017-07-04T02:30:14.642Z,99.99
2017-07-04T02:30:55.185Z,99.99
2017-07-04T02:31:35.773Z,99.99
2017-07-04T02:32:16.300Z,99.99
2017-07-04T02:32:56.837Z,99.99
2017-07-04T02:33:37.373Z,99.99
2017-07-04T02:34:17.909Z,99.99
2017-07-04T02:34:58.435Z,99.99
2017-07-04T02:35:38.965Z,99.99
2017-07-04T02:36:19.522Z,99.99
2017-07-04T02:37:00.042Z,99.99
2017-07-04T02:37:40.581Z,99.99
2017-07-04T02:38:21.124Z,99.99
2017-07-04T02:39:01.667Z,99.99
2017-07-04T02:39:42.211Z,99.99
2017-07-04T02:40:22.743Z,99.99
2017-07-04T02:41:03.265Z,99.99
2017-07-04T02:41:43.812Z,99.99
2017-07-04T02:42:24.351Z,99.99
2017-07-04T02:43:04.897Z,99.99
2017-07-04T02:43:45.427Z,99.99
2017-07-04T02:44:25.967Z,99.99
2017-07-04T02:45:06.511Z,99.99
2017-07-04T02:45:47.026Z,99.99
2017-07-04T02:46:27.567Z,99.99
2017-07-04T02:47:08.101Z,99.99
2017-07-04T02:47:48.639Z,99.99
2017-07-04T02:48:29.242Z,99.99
2017-07-04T02:49:09.727Z,99.99
2017-07-04T02:49:50.262Z,99.99
2017-07-04T02:50:30.801Z,99.99
2017-07-04T02:51:11.327Z,99.99
2017-07-04T02:51:51.872Z,99.99
2017-07-04T02:52:32.447Z,99.99
2017-07-04T02:53:12.982Z,99.99
2017-07-04T02:53:53.529Z,99.99
2017-07-04T02:54:34.065Z,99.99
2017-07-04T02:55:14.608Z,99.99
2017-07-04T02:55:55.150Z,99.99
2017-07-04T02:56:35.700Z,99.99
2017-07-04T02:57:16.244Z,99.99
2017-07-04T02:57:56.785Z,99.99
2017-07-04T02:58:37.310Z,99.99
2017-07-04T02:59:17.858Z,99.99
2017-07-04T02:59:58.384Z,99.99
2017-07-04T03:00:38.931Z,99.99
2017-07-04T03:01:19.474Z,99.99
2017-07-04T03:02:00.016Z,99.99
2017-07-04T03:02:40.543Z,99.99
2017-07-04T03:03:21.083Z,99.99
2017-07-04T03:04:01.610Z,99.99
2017-07-04T03:04:42.136Z,99.99
2017-07-04T03:05:22.675Z,99.99
2017-07-04T03:06:03.218Z,99.99
2017-07-04T03:06:43.766Z,99.99
2017-07-04T03:07:24.295Z,99.99
2017-07-04T03:08:04.883Z,99.99
2017-07-04T03:08:45.423Z,99.99
2017-07-04T03:09:25.958Z,99.99
2017-07-04T03:10:06.496Z,99.99
2017-07-04T03:10:47.039Z,99.99
2017-07-04T03:11:27.567Z,99.99
2017-07-04T03:12:08.100Z,99.99
2017-07-04T03:12:48.645Z,99.99
2017-07-04T03:13:29.195Z,99.99
2017-07-04T03:14:09.734Z,99.99
2017-07-04T03:14:50.274Z,99.99
2017-07-04T03:15:30.813Z,99.99
2017-07-04T03:16:11.355Z,99.99
2017-07-04T03:16:51.895Z,99.99
2017-07-04T03:17:32.439Z,99.99
2017-07-04T03:18:12.961Z,99.99
2017-07-04T03:18:53.499Z,99.99
2017-07-04T03:19:34.039Z,99.99
2017-07-04T03:20:14.581Z,99.99
2017-07-04T03:20:55.119Z,99.99
2017-07-04T03:21:35.648Z,99.99
2017-07-04T03:22:16.192Z,99.99
2017-07-04T03:22:56.744Z,99.99
2017-07-04T03:23:37.278Z,99.99
2017-07-04T03:24:17.811Z,99.99
2017-07-04T03:24:58.358Z,99.99
2017-07-04T03:25:38.894Z,99.99
2017-07-04T03:26:19.439Z,99.99
2017-07-04T03:26:59.997Z,99.99
2017-07-04T03:27:40.539Z,99.99
2017-07-04T03:28:21.082Z,99.99
2017-07-04T03:29:01.627Z,99.99
2017-07-04T03:29:42.169Z,99.99
2017-07-04T03:30:22.706Z,99.99
2017-07-04T03:31:03.350Z,99.99
2017-07-04T03:31:43.915Z,99.99
2017-07-04T03:32:24.457Z,99.99
2017-07-04T03:33:04.992Z,99.99
2017-07-04T03:33:45.538Z,99.99
2017-07-04T03:34:26.084Z,99.99
2017-07-04T03:35:06.636Z,99.99
2017-07-04T03:35:47.186Z,99.99
2017-07-04T03:36:27.729Z,99.99
2017-07-04T03:37:08.272Z,99.99
2017-07-04T03:37:48.821Z,99.99
2017-07-04T03:38:29.365Z,99.99
2017-07-04T03:39:09.902Z,99.99
2017-07-04T03:39:50.446Z,99.99
2017-07-04T03:40:30.981Z,99.99
2017-07-04T03:41:11.550Z,99.99
2017-07-04T03:41:52.089Z,99.99
2017-07-04T03:42:32.633Z,99.99
2017-07-04T03:43:13.175Z,99.99
2017-07-04T03:43:53.707Z,99.99
2017-07-04T03:44:34.250Z,99.99
2017-07-04T03:45:14.785Z,99.99
2017-07-04T03:45:55.317Z,99.99
2017-07-04T03:46:35.858Z,99.99
2017-07-04T03:47:16.403Z,99.99
2017-07-04T03:47:56.939Z,99.99
2017-07-04T03:48:37.459Z,99.99
2017-07-04T03:49:18.001Z,99.99
2017-07-04T03:49:58.533Z,99.99
2017-07-04T03:50:39.076Z,99.99
2017-07-04T03:51:19.616Z,99.99
2017-07-04T03:52:00.155Z,99.99
2017-07-04T03:52:40.687Z,99.99
2017-07-04T03:53:21.215Z,99.99
2017-07-04T03:54:01.750Z,99.99
2017-07-04T03:54:42.288Z,99.99
2017-07-04T03:55:22.830Z,99.99
2017-07-04T03:56:03.368Z,99.99
2017-07-04T03:56:43.933Z,99.99
2017-07-04T03:57:24.468Z,99.99
2017-07-04T03:58:05.000Z,99.99
2017-07-04T03:58:45.538Z,99.99
2017-07-04T03:59:26.068Z,99.99
2017-07-04T04:00:06.605Z,99.99
2017-07-04T04:00:47.143Z,99.99
2017-07-04T04:01:27.682Z,99.99
2017-07-04T04:02:08.223Z,99.99
2017-07-04T04:02:48.764Z,99.99
2017-07-04T04:03:29.347Z,99.99
2017-07-04T04:04:09.876Z,99.99
2017-07-04T04:04:50.416Z,99.99
2017-07-04T04:05:30.954Z,99.99
2017-07-04T04:06:11.491Z,99.99
2017-07-04T04:06:52.035Z,99.99
2017-07-04T04:07:32.566Z,99.99
2017-07-04T04:08:13.101Z,99.99
2017-07-04T04:08:53.632Z,99.99
2017-07-04T04:09:34.172Z,99.99
2017-07-04T04:10:14.721Z,99.99
2017-07-04T04:10:55.262Z,99.99
2017-07-04T04:11:35.795Z,99.99
2017-07-04T04:12:16.338Z,99.99
2017-07-04T04:12:56.862Z,99.99
2017-07-04T04:13:37.412Z,99.99
2017-07-04T04:14:17.944Z,99.99
2017-07-04T04:14:58.484Z,99.99
2017-07-04T04:15:39.016Z,99.99
2017-07-04T04:16:19.535Z,99.99
2017-07-04T04:17:00.057Z,99.99
2017-07-04T04:17:40.597Z,99.99
2017-07-04T04:18:21.131Z,99.99
2017-07-04T04:19:01.678Z,99.99
2017-07-04T04:19:42.220Z,99.99
2017-07-04T04:20:22.746Z,99.99
2017-07-04T04:21:03.279Z,99.99
2017-07-04T04:21:43.799Z,99.99
2017-07-04T04:22:24.334Z,99.99
2017-07-04T04:23:04.851Z,99.99
2017-07-04T04:23:45.408Z,99.99
2017-07-04T04:24:25.946Z,99.99
2017-07-04T04:25:06.486Z,99.99
2017-07-04T04:25:47.102Z,99.99
2017-07-04T04:26:27.627Z,99.99
2017-07-04T04:27:08.250Z,99.99
2017-07-04T04:27:48.811Z,99.99
2017-07-04T04:28:29.481Z,99.99
2017-07-04T04:29:10.012Z,99.99
2017-07-04T04:29:50.550Z,99.99
2017-07-04T04:30:31.088Z,99.99
2017-07-04T04:31:11.618Z,99.99
2017-07-04T04:31:52.154Z,99.99
2017-07-04T04:32:32.692Z,99.99
2017-07-04T04:33:13.247Z,99.99
2017-07-04T04:33:53.784Z,99.99
2017-07-04T04:34:34.327Z,99.99
2017-07-04T04:35:14.892Z,99.99
2017-07-04T04:35:55.432Z,99.99
2017-07-04T04:36:35.936Z,99.99
2017-07-04T04:37:16.483Z,99.99
2017-07-04T04:37:56.987Z,99.99
2017-07-04T04:38:37.531Z,99.99
2017-07-04T04:39:18.095Z,99.99
2017-07-04T04:39:58.552Z,99.99
2017-07-04T04:40:39.086Z,99.99
2017-07-04T04:41:19.641Z,99.99
2017-07-04T04:42:00.183Z,99.99
2017-07-04T04:42:40.714Z,99.99
2017-07-04T04:43:21.252Z,99.99
2017-07-04T04:44:01.806Z,99.99
2017-07-04T04:44:42.337Z,99.99
2017-07-04T04:45:22.873Z,99.99
2017-07-04T04:46:03.464Z,99.99
2017-07-04T04:46:43.953Z,99.99
2017-07-04T04:47:24.489Z,99.99
2017-07-04T04:48:05.024Z,99.99
2017-07-04T04:48:45.560Z,99.99
2017-07-04T04:49:26.107Z,99.99
2017-07-04T04:50:06.634Z,99.99
2017-07-04T04:50:47.178Z,99.99
2017-07-04T04:51:27.700Z,99.99
2017-07-04T04:52:08.240Z,99.99
2017-07-04T04:52:48.770Z,99.99
2017-07-04T04:53:29.306Z,99.99
2017-07-04T04:54:09.845Z,99.99
2017-07-04T04:54:50.383Z,99.99
2017-07-04T04:55:30.928Z,99.99
2017-07-04T04:56:11.464Z,99.99
2017-07-04T04:56:52.014Z,99.99
2017-07-04T04:57:32.542Z,99.99
2017-07-04T04:58:13.073Z,99.99
2017-07-04T04:58:53.617Z,99.99
2017-07-04T04:59:34.153Z,99.99
2017-07-04T05:00:14.716Z,99.99
2017-07-04T05:00:55.231Z,99.99
2017-07-04T05:01:35.767Z,99.99
2017-07-04T05:02:16.304Z,99.99
2017-07-04T05:02:56.851Z,99.99
2017-07-04T05:03:37.398Z,99.99
2017-07-04T05:04:17.937Z,99.99
2017-07-04T05:04:58.475Z,99.99
2017-07-04T05:05:39.009Z,99.99
2017-07-04T05:06:19.578Z,99.99
2017-07-04T05:07:00.097Z,99.99
2017-07-04T05:07:40.639Z,99.99
2017-07-04T05:08:21.183Z,99.99
2017-07-04T05:09:01.762Z,99.99
2017-07-04T05:09:42.303Z,99.99
2017-07-04T05:10:22.861Z,99.99
2017-07-04T05:11:03.396Z,99.99
2017-07-04T05:11:43.941Z,99.99
2017-07-04T05:12:24.484Z,99.99
2017-07-04T05:13:05.030Z,99.99
2017-07-04T05:13:45.575Z,99.99
2017-07-04T05:14:26.122Z,99.99
2017-07-04T05:15:06.666Z,99.99
2017-07-04T05:15:47.200Z,99.99
2017-07-04T05:16:27.740Z,99.99
2017-07-04T05:17:08.281Z,99.99
2017-07-04T05:17:48.820Z,99.99
2017-07-04T05:18:29.376Z,99.99
2017-07-04T05:19:09.915Z,99.99
2017-07-04T05:19:50.453Z,99.99
2017-07-04T05:20:31.003Z,99.99
2017-07-04T05:21:11.533Z,99.99
2017-07-04T05:21:52.074Z,99.99
2017-07-04T05:22:32.611Z,99.99
2017-07-04T05:23:13.147Z,99.99
2017-07-04T05:23:53.683Z,99.99
2017-07-04T05:24:34.226Z,99.99
2017-07-04T05:25:14.761Z,99.99
2017-07-04T05:25:55.298Z,99.99
2017-07-04T05:26:35.848Z,99.99
2017-07-04T05:27:16.389Z,99.99
2017-07-04T05:27:56.931Z,99.99
2017-07-04T05:28:37.512Z,99.99
2017-07-04T05:29:18.014Z,99.99
2017-07-04T05:29:58.547Z,99.99
2017-07-04T05:30:39.083Z,99.99
2017-07-04T05:31:19.637Z,99.99
2017-07-04T05:32:00.176Z,99.99
2017-07-04T05:32:40.717Z,99.99
2017-07-04T05:33:21.279Z,99.99
2017-07-04T05:34:01.818Z,99.99
2017-07-04T05:34:42.356Z,99.99
2017-07-04T05:35:22.904Z,99.99
2017-07-04T05:36:03.468Z,99.99
2017-07-04T05:36:43.998Z,99.99
2017-07-04T05:37:24.538Z,99.99
2017-07-04T05:38:05.068Z,99.99
2017-07-04T05:38:45.615Z,99.99
2017-07-04T05:39:26.149Z,99.99
2017-07-04T05:40:06.693Z,99.99
2017-07-04T05:40:47.234Z,99.99
2017-07-04T05:41:27.779Z,99.99
2017-07-04T05:42:08.312Z,99.99
2017-07-04T05:42:48.873Z,99.99
2017-07-04T05:43:29.429Z,99.99
2017-07-04T05:44:10.028Z,99.99
2017-07-04T05:44:50.540Z,99.99
2017-07-04T05:45:31.042Z,99.99
2017-07-04T05:46:11.635Z,99.99
2017-07-04T05:46:52.205Z,99.99
2017-07-04T05:47:32.956Z,99.99
2017-07-04T05:48:13.691Z,99.99
2017-07-04T05:48:54.200Z,99.99
2017-07-04T05:49:34.737Z,99.99
2017-07-04T05:50:15.261Z,99.99
2017-07-04T05:50:55.825Z,99.99
2017-07-04T05:51:36.390Z,99.99
2017-07-04T05:52:16.923Z,99.99
2017-07-04T05:52:57.490Z,99.99
2017-07-04T05:53:38.011Z,99.99
2017-07-04T05:54:18.562Z,99.99
2017-07-04T05:54:59.143Z,99.99
2017-07-04T05:55:39.668Z,99.99
2017-07-04T05:56:20.207Z,99.99
2017-07-04T05:57:00.748Z,99.99
2017-07-04T05:57:41.272Z,99.99
2017-07-04T05:58:21.815Z,99.99
2017-07-04T05:59:02.343Z,99.99
2017-07-04T05:59:42.867Z,99.99
2017-07-04T06:00:23.391Z,99.99
2017-07-04T06:01:03.891Z,99.99
2017-07-04T06:01:44.462Z,99.99
2017-07-04T06:02:24.967Z,99.99
2017-07-04T06:03:05.473Z,99.99
2017-07-04T06:03:46.001Z,99.99
2017-07-04T06:04:26.507Z,99.99
2017-07-04T06:05:07.042Z,99.99
2017-07-04T06:05:47.580Z,99.99
2017-07-04T06:06:28.100Z,99.99
2017-07-04T06:07:08.597Z,99.99
2017-07-04T06:07:49.144Z,99.99
2017-07-04T06:08:29.731Z,99.99
2017-07-04T06:09:10.157Z,99.99
2017-07-04T06:09:50.669Z,99.99
2017-07-04T06:10:31.267Z,99.99
2017-07-04T06:11:11.757Z,99.99
2017-07-04T06:11:52.290Z,99.99
2017-07-04T06:12:32.852Z,99.99
2017-07-04T06:13:13.340Z,99.99
2017-07-04T06:13:53.904Z,99.99
2017-07-04T06:14:34.388Z,99.99
2017-07-04T06:15:14.940Z,99.99
2017-07-04T06:15:55.493Z,99.99
2017-07-04T06:16:36.042Z,99.99
2017-07-04T06:17:16.511Z,99.99
2017-07-04T06:17:57.036Z,99.99
2017-07-04T06:18:37.599Z,99.99
2017-07-04T06:19:18.168Z,99.99
2017-07-04T06:19:58.777Z,99.99
2017-07-04T06:20:39.326Z,99.99
2017-07-04T06:21:19.866Z,99.99
2017-07-04T06:22:00.426Z,99.99
2017-07-04T06:22:40.979Z,99.99
2017-07-04T06:23:21.528Z,99.99
2017-07-04T06:24:02.122Z,99.99
2017-07-04T06:24:42.654Z,99.99
2017-07-04T06:25:23.144Z,99.99
2017-07-04T06:26:03.669Z,99.99
2017-07-04T06:26:44.180Z,99.99
2017-07-04T06:27:24.693Z,99.99
2017-07-04T06:28:05.221Z,99.99
2017-07-04T06:28:45.761Z,99.99
2017-07-04T06:29:26.273Z,99.99
2017-07-04T06:30:06.789Z,99.99
2017-07-04T06:30:47.267Z,99.99
2017-07-04T06:31:27.794Z,99.99
2017-07-04T06:32:08.279Z,99.99
2017-07-04T06:32:48.772Z,99.99
2017-07-04T06:33:29.281Z,99.99
2017-07-04T06:34:09.803Z,99.99
2017-07-04T06:34:50.319Z,99.99
2017-07-04T06:35:30.869Z,99.99
2017-07-04T06:36:11.364Z,99.99
2017-07-04T06:36:51.872Z,99.99
2017-07-04T06:37:32.376Z,99.99
2017-07-04T06:38:12.870Z,99.99
2017-07-04T06:38:53.408Z,99.99
2017-07-04T06:39:33.914Z,99.99
2017-07-04T06:40:14.456Z,99.99
2017-07-04T06:40:54.920Z,99.99
2017-07-04T06:41:35.441Z,99.99
2017-07-04T06:42:15.972Z,99.99
2017-07-04T06:42:56.535Z,99.99
2017-07-04T06:43:37.091Z,99.99
2017-07-04T06:44:17.619Z,99.99
2017-07-04T06:44:58.168Z,99.99
2017-07-04T06:45:38.743Z,99.99
2017-07-04T06:46:19.276Z,99.99
2017-07-04T06:46:59.816Z,99.99
2017-07-04T06:47:40.365Z,99.99
2017-07-04T06:48:20.899Z,99.99
2017-07-04T06:49:01.432Z,99.99
2017-07-04T06:49:41.966Z,99.99
2017-07-04T06:50:22.511Z,99.99
2017-07-04T06:51:03.031Z,99.99
2017-07-04T06:51:43.598Z,99.99
2017-07-04T06:52:24.160Z,99.99
2017-07-04T06:53:04.657Z,99.99
2017-07-04T06:53:45.186Z,99.99
2017-07-04T06:54:25.725Z,99.99
2017-07-04T06:55:06.248Z,99.99
2017-07-04T06:55:46.773Z,99.99
2017-07-04T06:56:27.281Z,99.99
2017-07-04T06:57:07.823Z,99.99
2017-07-04T06:57:48.334Z,99.99
2017-07-04T06:58:28.845Z,99.99
2017-07-04T06:59:09.374Z,99.99
2017-07-04T06:59:49.961Z,99.99
2017-07-04T07:00:30.434Z,99.99
2017-07-04T07:01:10.959Z,99.99
2017-07-04T07:01:51.501Z,99.99
2017-07-04T07:02:32.052Z,99.99
2017-07-04T07:03:12.556Z,99.99
2017-07-04T07:03:53.083Z,99.99
2017-07-04T07:04:33.581Z,99.99
2017-07-04T07:05:14.126Z,99.99
2017-07-04T07:05:54.647Z,99.99
2017-07-04T07:06:35.179Z,99.99
2017-07-04T07:07:15.678Z,99.99
2017-07-04T07:07:56.197Z,99.99
2017-07-04T07:08:36.682Z,99.99
2017-07-04T07:09:17.241Z,99.99
2017-07-04T07:09:57.770Z,99.99
2017-07-04T07:10:38.296Z,99.99
2017-07-04T07:11:18.813Z,99.99
2017-07-04T07:11:59.324Z,99.99
2017-07-04T07:12:39.863Z,99.99
2017-07-04T07:13:20.388Z,99.99
2017-07-04T07:14:00.876Z,99.99
2017-07-04T07:14:41.441Z,99.99
2017-07-04T07:15:21.987Z,99.99
2017-07-04T07:16:02.479Z,98.77
2017-07-04T07:16:43.030Z,98.96
2017-07-04T07:17:23.557Z,98.96
2017-07-04T07:18:04.083Z,99.44
2017-07-04T07:18:44.585Z,99.06
2017-07-04T07:19:25.117Z,97.52
2017-07-04T07:20:05.688Z,98.1
2017-07-04T07:20:46.196Z,97.96
2017-07-04T07:21:26.749Z,97.19
2017-07-04T07:22:07.271Z,96.51
2017-07-04T07:22:47.768Z,96.61
2017-07-04T07:23:28.266Z,95.89
2017-07-04T07:24:08.788Z,94.92
2017-07-04T07:24:49.325Z,93.96
2017-07-04T07:25:29.828Z,92.32
2017-07-04T07:26:10.376Z,92.13
2017-07-04T07:26:50.896Z,92.32
2017-07-04T07:27:31.443Z,91.94
2017-07-04T07:28:11.981Z,91.51
2017-07-04T07:28:52.524Z,91.8
2017-07-04T07:29:33.034Z,91.7
2017-07-04T07:30:13.547Z,92.18
2017-07-04T07:30:54.057Z,92.66
2017-07-04T07:31:34.571Z,92.08
2017-07-04T07:32:15.081Z,92.47
2017-07-04T07:32:55.634Z,92.57
2017-07-04T07:33:36.235Z,92.43
2017-07-04T07:34:16.763Z,92.43
2017-07-04T07:34:57.361Z,93.1
2017-07-04T07:35:37.909Z,93.19
2017-07-04T07:36:18.478Z,93.38
2017-07-04T07:36:59.004Z,93.77
2017-07-04T07:37:39.507Z,94.15
2017-07-04T07:38:20.022Z,93.96
2017-07-04T07:39:00.560Z,94.25
2017-07-04T07:39:41.092Z,94.15
2017-07-04T07:40:21.639Z,93.77
2017-07-04T07:41:02.123Z,93.29
2017-07-04T07:41:42.647Z,93.29
2017-07-04T07:42:23.165Z,93.58
2017-07-04T07:43:03.709Z,93.1
2017-07-04T07:43:44.208Z,93.29
2017-07-04T07:44:24.751Z,93.24
2017-07-04T07:45:05.281Z,92.28
2017-07-04T07:45:45.799Z,92.38
2017-07-04T07:46:26.317Z,92.18
2017-07-04T07:47:06.835Z,91.7
2017-07-04T07:47:47.335Z,90.88
2017-07-04T07:48:27.895Z,91.07
2017-07-04T07:49:08.445Z,90.59
2017-07-04T07:49:48.963Z,89.43
2017-07-04T07:50:29.513Z,89.58
2017-07-04T07:51:10.018Z,88.51
2017-07-04T07:51:50.558Z,87.94
2017-07-04T07:52:31.032Z,87.12
2017-07-04T07:53:11.564Z,86.82
2017-07-04T07:53:52.134Z,86.15
2017-07-04T07:54:32.661Z,85.33
2017-07-04T07:55:13.161Z,84.94
2017-07-04T07:55:53.741Z,83.5
2017-07-04T07:56:34.243Z,83.5
2017-07-04T07:57:14.789Z,83.45
2017-07-04T07:57:55.407Z,83.36
2017-07-04T07:58:35.890Z,83.64
2017-07-04T07:59:16.413Z,83.64
2017-07-04T07:59:56.912Z,83.64
2017-07-04T08:00:37.499Z,83.74
2017-07-04T08:01:17.996Z,83.94
2017-07-04T08:01:58.515Z,83.55
2017-07-04T08:02:39.021Z,82.78
2017-07-04T08:03:19.564Z,82.1
2017-07-04T08:04:00.079Z,82.05
2017-07-04T08:04:40.602Z,81.47
2017-07-04T08:05:21.101Z,81.47
2017-07-04T08:06:01.610Z,80.89
2017-07-04T08:06:42.189Z,80.41
2017-07-04T08:07:22.680Z,80.02
2017-07-04T08:08:03.218Z,79.39
2017-07-04T08:08:43.712Z,79.39
2017-07-04T08:09:24.221Z,78.66
2017-07-04T08:10:04.736Z,78.46
2017-07-04T08:10:45.260Z,77.34
2017-07-04T08:11:25.789Z,76.95
2017-07-04T08:12:06.368Z,76.28
2017-07-04T08:12:46.853Z,75.74
2017-07-04T08:13:27.381Z,75.06
2017-07-04T08:14:07.878Z,74.29
2017-07-04T08:14:48.391Z,73.65
2017-07-04T08:15:28.930Z,73.16
2017-07-04T08:16:09.453Z,73.36
2017-07-04T08:16:49.968Z,73.16
2017-07-04T08:17:30.474Z,72.3
2017-07-04T08:18:11.112Z,71.72
2017-07-04T08:18:51.541Z,71.23
2017-07-04T08:19:32.054Z,70.81
2017-07-04T08:20:12.605Z,70.9
2017-07-04T08:20:53.114Z,71.48
2017-07-04T08:21:33.623Z,71.1
2017-07-04T08:22:14.143Z,71
2017-07-04T08:22:54.678Z,70.72
2017-07-04T08:23:35.185Z,70.62
2017-07-04T08:24:15.764Z,70.07
2017-07-04T08:24:56.274Z,69.33
2017-07-04T08:25:36.795Z,68.08
2017-07-04T08:26:17.329Z,67.33
2017-07-04T08:26:57.822Z,66.56
2017-07-04T08:27:38.380Z,65.4
2017-07-04T08:28:18.877Z,64.82
2017-07-04T08:28:59.378Z,64.72
2017-07-04T08:29:39.913Z,65.3
2017-07-04T08:30:20.424Z,64.59
2017-07-04T08:31:00.936Z,65.17
2017-07-04T08:31:41.459Z,64.98
2017-07-04T08:32:21.958Z,64.69
2017-07-04T08:33:02.483Z,64.43
2017-07-04T08:33:43.005Z,63.85
2017-07-04T08:34:23.521Z,63.56
2017-07-04T08:35:04.029Z,62.92
2017-07-04T08:35:44.571Z,62.24
2017-07-04T08:36:25.104Z,61.88
2017-07-04T08:37:05.643Z,61.85
2017-07-04T08:37:46.143Z,61.59
2017-07-04T08:38:26.663Z,61.79
2017-07-04T08:39:07.180Z,60.91
2017-07-04T08:39:47.758Z,60.27
2017-07-04T08:40:28.309Z,60.27
2017-07-04T08:41:08.811Z,59.33
2017-07-04T08:41:49.361Z,58.29
2017-07-04T08:42:29.930Z,57.44
2017-07-04T08:43:10.472Z,56.37
2017-07-04T08:43:51.016Z,55.02
2017-07-04T08:44:31.545Z,54.53
2017-07-04T08:45:12.076Z,54.9
2017-07-04T08:45:52.621Z,54.99
2017-07-04T08:46:33.202Z,55.31
2017-07-04T08:47:13.735Z,54.53
2017-07-04T08:47:54.255Z,54.27
2017-07-04T08:48:34.881Z,53.69